sensor_id;sensor_type;location;lat;lon;timestamp;P1;durP1;ratioP1;P2;durP2;ratioP2
39970;SDS011;35425;51.142;17.178;2023-04-03T00:00:38;1.85;;;1.02;;
39970;SDS011;35425;51.142;17.178;2023-04-03T00:03:08;1.77;;;1.17;;
39970;SDS011;35425;51.142;17.178;2023-04-03T00:05:35;2.08;;;1.25;;
39970;SDS011;35425;51.142;17.178;2023-04-03T00:08:02;1.52;;;0.90;;
39970;SDS011;35425;51.142;17.178;2023-04-03T00:10:31;2.58;;;1.30;;
39970;SDS011;35425;51.142;17.178;2023-04-03T00:12:58;2.30;;;1.10;;
39970;SDS011;35425;51.142;17.178;2023-04-03T00:15:25;2.97;;;1.35;;
39970;SDS011;35425;51.142;17.178;2023-04-03T00:17:51;1.67;;;1.00;;
39970;SDS011;35425;51.142;17.178;2023-04-03T00:20:18;2.15;;;1.20;;
39970;SDS011;35425;51.142;17.178;2023-04-03T00:22:48;2.78;;;1.48;;
39970;SDS011;35425;51.142;17.178;2023-04-03T00:25:15;2.38;;;1.15;;
39970;SDS011;35425;51.142;17.178;2023-04-03T00:27:42;1.95;;;1.10;;
39970;SDS011;35425;51.142;17.178;2023-04-03T00:30:10;2.22;;;1.10;;
39970;SDS011;35425;51.142;17.178;2023-04-03T00:32:37;1.95;;;1.20;;
39970;SDS011;35425;51.142;17.178;2023-04-03T00:35:04;2.78;;;1.05;;
39970;SDS011;35425;51.142;17.178;2023-04-03T00:37:31;2.42;;;1.08;;
39970;SDS011;35425;51.142;17.178;2023-04-03T00:39:58;1.88;;;1.00;;
39970;SDS011;35425;51.142;17.178;2023-04-03T00:42:25;2.05;;;1.10;;
39970;SDS011;35425;51.142;17.178;2023-04-03T00:47:19;1.77;;;0.90;;
39970;SDS011;35425;51.142;17.178;2023-04-03T00:49:46;2.35;;;1.10;;
39970;SDS011;35425;51.142;17.178;2023-04-03T00:52:17;2.75;;;1.30;;
39970;SDS011;35425;51.142;17.178;2023-04-03T00:54:45;1.30;;;0.85;;
39970;SDS011;35425;51.142;17.178;2023-04-03T00:57:14;2.00;;;0.88;;
39970;SDS011;35425;51.142;17.178;2023-04-03T00:59:43;2.10;;;0.90;;
39970;SDS011;35425;51.142;17.178;2023-04-03T01:02:11;1.40;;;0.70;;
39970;SDS011;35425;51.142;17.178;2023-04-03T01:04:39;2.83;;;0.93;;
39970;SDS011;35425;51.142;17.178;2023-04-03T01:09:41;1.40;;;0.70;;
39970;SDS011;35425;51.142;17.178;2023-04-03T01:14:46;1.35;;;0.80;;
39970;SDS011;35425;51.142;17.178;2023-04-03T01:25:32;1.77;;;0.88;;
39970;SDS011;35425;51.142;17.178;2023-04-03T01:27:59;1.27;;;0.85;;
39970;SDS011;35425;51.142;17.178;2023-04-03T01:30:29;1.70;;;0.80;;
39970;SDS011;35425;51.142;17.178;2023-04-03T01:32:57;1.88;;;0.98;;
39970;SDS011;35425;51.142;17.178;2023-04-03T01:35:24;1.92;;;0.90;;
39970;SDS011;35425;51.142;17.178;2023-04-03T01:37:51;1.95;;;0.93;;
39970;SDS011;35425;51.142;17.178;2023-04-03T01:40:21;1.58;;;0.80;;
39970;SDS011;35425;51.142;17.178;2023-04-03T01:42:48;1.33;;;0.75;;
39970;SDS011;35425;51.142;17.178;2023-04-03T01:45:15;2.10;;;0.95;;
39970;SDS011;35425;51.142;17.178;2023-04-03T01:47:42;2.45;;;0.90;;
39970;SDS011;35425;51.142;17.178;2023-04-03T01:50:11;1.98;;;0.80;;
39970;SDS011;35425;51.142;17.178;2023-04-03T01:52:38;2.55;;;1.00;;
39970;SDS011;35425;51.142;17.178;2023-04-03T01:55:06;1.80;;;0.90;;
39970;SDS011;35425;51.142;17.178;2023-04-03T01:57:33;1.80;;;1.00;;
39970;SDS011;35425;51.142;17.178;2023-04-03T02:00:00;1.88;;;1.17;;
39970;SDS011;35425;51.142;17.178;2023-04-03T02:02:26;2.33;;;1.00;;
39970;SDS011;35425;51.142;17.178;2023-04-03T02:04:53;2.38;;;0.80;;
39970;SDS011;35425;51.142;17.178;2023-04-03T02:07:21;1.73;;;0.90;;
39970;SDS011;35425;51.142;17.178;2023-04-03T02:09:48;2.42;;;1.00;;
39970;SDS011;35425;51.142;17.178;2023-04-03T02:12:15;1.33;;;0.70;;
39970;SDS011;35425;51.142;17.178;2023-04-03T02:14:42;2.63;;;1.10;;
39970;SDS011;35425;51.142;17.178;2023-04-03T02:17:09;1.85;;;0.90;;
39970;SDS011;35425;51.142;17.178;2023-04-03T02:19:35;2.85;;;1.10;;
39970;SDS011;35425;51.142;17.178;2023-04-03T02:22:03;2.25;;;0.90;;
39970;SDS011;35425;51.142;17.178;2023-04-03T02:24:29;2.03;;;1.00;;
39970;SDS011;35425;51.142;17.178;2023-04-03T02:26:57;2.63;;;1.02;;
39970;SDS011;35425;51.142;17.178;2023-04-03T02:29:23;1.98;;;0.80;;
39970;SDS011;35425;51.142;17.178;2023-04-03T02:31:50;2.22;;;1.05;;
39970;SDS011;35425;51.142;17.178;2023-04-03T02:34:17;2.83;;;1.00;;
39970;SDS011;35425;51.142;17.178;2023-04-03T02:36:43;1.83;;;1.00;;
39970;SDS011;35425;51.142;17.178;2023-04-03T02:39:11;1.77;;;0.85;;
39970;SDS011;35425;51.142;17.178;2023-04-03T02:41:38;1.55;;;0.90;;
39970;SDS011;35425;51.142;17.178;2023-04-03T02:44:05;1.55;;;0.90;;
39970;SDS011;35425;51.142;17.178;2023-04-03T02:46:32;3.50;;;0.93;;
39970;SDS011;35425;51.142;17.178;2023-04-03T02:48:59;1.95;;;0.90;;
39970;SDS011;35425;51.142;17.178;2023-04-03T02:51:26;2.58;;;1.00;;
39970;SDS011;35425;51.142;17.178;2023-04-03T02:53:52;2.15;;;1.00;;
39970;SDS011;35425;51.142;17.178;2023-04-03T02:56:24;3.17;;;1.05;;
39970;SDS011;35425;51.142;17.178;2023-04-03T02:58:51;2.55;;;0.93;;
39970;SDS011;35425;51.142;17.178;2023-04-03T03:01:18;1.67;;;1.10;;
39970;SDS011;35425;51.142;17.178;2023-04-03T03:03:44;1.45;;;0.85;;
39970;SDS011;35425;51.142;17.178;2023-04-03T03:06:12;2.63;;;1.10;;
39970;SDS011;35425;51.142;17.178;2023-04-03T03:08:39;1.80;;;0.90;;
39970;SDS011;35425;51.142;17.178;2023-04-03T03:11:06;2.30;;;1.25;;
39970;SDS011;35425;51.142;17.178;2023-04-03T03:13:33;2.42;;;1.17;;
39970;SDS011;35425;51.142;17.178;2023-04-03T03:16:00;2.92;;;1.15;;
39970;SDS011;35425;51.142;17.178;2023-04-03T03:18:27;2.63;;;1.27;;
39970;SDS011;35425;51.142;17.178;2023-04-03T03:20:55;2.63;;;0.95;;
39970;SDS011;35425;51.142;17.178;2023-04-03T03:23:23;2.28;;;1.10;;
39970;SDS011;35425;51.142;17.178;2023-04-03T03:25:54;2.42;;;1.20;;
39970;SDS011;35425;51.142;17.178;2023-04-03T03:28:21;2.67;;;0.98;;
39970;SDS011;35425;51.142;17.178;2023-04-03T03:30:47;1.98;;;0.90;;
39970;SDS011;35425;51.142;17.178;2023-04-03T03:33:16;2.83;;;1.20;;
39970;SDS011;35425;51.142;17.178;2023-04-03T03:35:44;2.20;;;0.95;;
39970;SDS011;35425;51.142;17.178;2023-04-03T03:38:10;2.08;;;0.80;;
39970;SDS011;35425;51.142;17.178;2023-04-03T03:40:40;2.33;;;1.52;;
39970;SDS011;35425;51.142;17.178;2023-04-03T03:43:07;1.98;;;0.80;;
39970;SDS011;35425;51.142;17.178;2023-04-03T03:45:34;2.88;;;1.20;;
39970;SDS011;35425;51.142;17.178;2023-04-03T03:48:02;3.55;;;1.15;;
39970;SDS011;35425;51.142;17.178;2023-04-03T03:50:29;2.58;;;0.90;;
39970;SDS011;35425;51.142;17.178;2023-04-03T03:52:56;2.72;;;1.17;;
39970;SDS011;35425;51.142;17.178;2023-04-03T03:55:23;3.35;;;1.30;;
39970;SDS011;35425;51.142;17.178;2023-04-03T03:57:50;2.42;;;0.95;;
39970;SDS011;35425;51.142;17.178;2023-04-03T04:00:17;1.63;;;0.90;;
39970;SDS011;35425;51.142;17.178;2023-04-03T04:02:44;2.00;;;1.08;;
39970;SDS011;35425;51.142;17.178;2023-04-03T04:05:11;2.50;;;1.10;;
39970;SDS011;35425;51.142;17.178;2023-04-03T04:07:40;1.40;;;0.82;;
39970;SDS011;35425;51.142;17.178;2023-04-03T04:10:07;2.03;;;1.52;;
39970;SDS011;35425;51.142;17.178;2023-04-03T04:12:34;2.00;;;0.95;;
39970;SDS011;35425;51.142;17.178;2023-04-03T04:15:02;1.63;;;0.90;;
39970;SDS011;35425;51.142;17.178;2023-04-03T04:17:29;2.33;;;1.02;;
39970;SDS011;35425;51.142;17.178;2023-04-03T04:19:56;2.42;;;1.08;;
39970;SDS011;35425;51.142;17.178;2023-04-03T04:22:23;1.85;;;0.93;;
39970;SDS011;35425;51.142;17.178;2023-04-03T04:24:49;2.88;;;1.08;;
39970;SDS011;35425;51.142;17.178;2023-04-03T04:27:16;1.38;;;0.73;;
39970;SDS011;35425;51.142;17.178;2023-04-03T04:29:43;2.00;;;0.90;;
39970;SDS011;35425;51.142;17.178;2023-04-03T04:32:12;1.92;;;1.10;;
39970;SDS011;35425;51.142;17.178;2023-04-03T04:34:38;1.92;;;0.80;;
39970;SDS011;35425;51.142;17.178;2023-04-03T04:37:05;2.30;;;0.93;;
39970;SDS011;35425;51.142;17.178;2023-04-03T04:39:32;3.50;;;1.15;;
39970;SDS011;35425;51.142;17.178;2023-04-03T04:41:59;2.08;;;1.08;;
39970;SDS011;35425;51.142;17.178;2023-04-03T04:44:25;2.35;;;0.90;;
39970;SDS011;35425;51.142;17.178;2023-04-03T04:46:52;2.90;;;1.00;;
39970;SDS011;35425;51.142;17.178;2023-04-03T04:49:19;1.58;;;0.90;;
39970;SDS011;35425;51.142;17.178;2023-04-03T04:51:46;3.03;;;0.98;;
39970;SDS011;35425;51.142;17.178;2023-04-03T04:54:17;1.58;;;0.80;;
39970;SDS011;35425;51.142;17.178;2023-04-03T04:56:44;1.70;;;0.90;;
39970;SDS011;35425;51.142;17.178;2023-04-03T04:59:11;2.33;;;0.82;;
39970;SDS011;35425;51.142;17.178;2023-04-03T05:01:38;1.40;;;0.70;;
39970;SDS011;35425;51.142;17.178;2023-04-03T05:04:05;2.03;;;1.13;;
39970;SDS011;35425;51.142;17.178;2023-04-03T05:06:31;2.47;;;1.00;;
39970;SDS011;35425;51.142;17.178;2023-04-03T05:08:59;2.28;;;0.75;;
39970;SDS011;35425;51.142;17.178;2023-04-03T05:11:26;2.13;;;1.00;;
39970;SDS011;35425;51.142;17.178;2023-04-03T05:13:53;0.90;;;0.38;;
39970;SDS011;35425;51.142;17.178;2023-04-03T05:16:20;1.58;;;0.82;;
39970;SDS011;35425;51.142;17.178;2023-04-03T05:18:47;2.00;;;0.80;;
39970;SDS011;35425;51.142;17.178;2023-04-03T05:21:13;2.15;;;0.75;;
39970;SDS011;35425;51.142;17.178;2023-04-03T05:23:41;1.50;;;0.80;;
39970;SDS011;35425;51.142;17.178;2023-04-03T05:26:07;2.03;;;0.68;;
39970;SDS011;35425;51.142;17.178;2023-04-03T05:28:35;1.23;;;0.73;;
39970;SDS011;35425;51.142;17.178;2023-04-03T05:31:01;2.03;;;0.90;;
39970;SDS011;35425;51.142;17.178;2023-04-03T05:33:32;1.50;;;0.57;;
39970;SDS011;35425;51.142;17.178;2023-04-03T05:36:05;1.08;;;0.60;;
39970;SDS011;35425;51.142;17.178;2023-04-03T05:38:33;1.35;;;0.57;;
39970;SDS011;35425;51.142;17.178;2023-04-03T05:41:01;1.77;;;0.82;;
39970;SDS011;35425;51.142;17.178;2023-04-03T05:43:28;1.75;;;0.80;;
39970;SDS011;35425;51.142;17.178;2023-04-03T05:45:55;1.98;;;0.60;;
39970;SDS011;35425;51.142;17.178;2023-04-03T05:48:22;1.13;;;0.70;;
39970;SDS011;35425;51.142;17.178;2023-04-03T05:50:49;2.25;;;0.70;;
39970;SDS011;35425;51.142;17.178;2023-04-03T05:53:17;1.75;;;0.85;;
39970;SDS011;35425;51.142;17.178;2023-04-03T05:55:46;1.20;;;0.63;;
39970;SDS011;35425;51.142;17.178;2023-04-03T05:58:13;1.58;;;0.65;;
39970;SDS011;35425;51.142;17.178;2023-04-03T06:00:39;1.63;;;0.90;;
39970;SDS011;35425;51.142;17.178;2023-04-03T06:03:06;1.15;;;0.80;;
39970;SDS011;35425;51.142;17.178;2023-04-03T06:05:34;2.00;;;0.80;;
39970;SDS011;35425;51.142;17.178;2023-04-03T06:08:06;1.23;;;0.73;;
39970;SDS011;35425;51.142;17.178;2023-04-03T06:10:33;2.17;;;0.80;;
39970;SDS011;35425;51.142;17.178;2023-04-03T06:13:06;1.77;;;0.73;;
39970;SDS011;35425;51.142;17.178;2023-04-03T06:15:33;1.60;;;0.82;;
39970;SDS011;35425;51.142;17.178;2023-04-03T06:18:00;2.45;;;0.80;;
39970;SDS011;35425;51.142;17.178;2023-04-03T06:20:27;1.90;;;0.82;;
39970;SDS011;35425;51.142;17.178;2023-04-03T06:22:54;1.75;;;0.88;;
39970;SDS011;35425;51.142;17.178;2023-04-03T06:25:21;1.70;;;0.80;;
39970;SDS011;35425;51.142;17.178;2023-04-03T06:27:48;1.73;;;0.75;;
39970;SDS011;35425;51.142;17.178;2023-04-03T06:30:17;2.33;;;0.90;;
39970;SDS011;35425;51.142;17.178;2023-04-03T06:32:44;1.75;;;0.65;;
39970;SDS011;35425;51.142;17.178;2023-04-03T06:35:11;1.67;;;0.90;;
39970;SDS011;35425;51.142;17.178;2023-04-03T06:37:38;1.20;;;0.77;;
39970;SDS011;35425;51.142;17.178;2023-04-03T06:40:05;2.78;;;1.17;;
39970;SDS011;35425;51.142;17.178;2023-04-03T06:42:32;1.38;;;0.80;;
39970;SDS011;35425;51.142;17.178;2023-04-03T06:45:02;1.02;;;0.68;;
39970;SDS011;35425;51.142;17.178;2023-04-03T06:47:28;2.53;;;1.20;;
39970;SDS011;35425;51.142;17.178;2023-04-03T06:49:55;2.65;;;0.80;;
39970;SDS011;35425;51.142;17.178;2023-04-03T06:52:22;1.88;;;1.00;;
39970;SDS011;35425;51.142;17.178;2023-04-03T06:54:49;1.88;;;0.90;;
39970;SDS011;35425;51.142;17.178;2023-04-03T06:57:18;1.40;;;0.73;;
39970;SDS011;35425;51.142;17.178;2023-04-03T06:59:45;1.60;;;0.90;;
39970;SDS011;35425;51.142;17.178;2023-04-03T07:02:12;2.13;;;0.80;;
39970;SDS011;35425;51.142;17.178;2023-04-03T07:04:39;2.15;;;0.93;;
39970;SDS011;35425;51.142;17.178;2023-04-03T07:07:06;2.78;;;1.02;;
39970;SDS011;35425;51.142;17.178;2023-04-03T07:09:34;2.00;;;0.77;;
39970;SDS011;35425;51.142;17.178;2023-04-03T07:12:00;1.50;;;0.75;;
39970;SDS011;35425;51.142;17.178;2023-04-03T07:14:27;2.63;;;1.02;;
39970;SDS011;35425;51.142;17.178;2023-04-03T07:16:54;1.60;;;1.00;;
39970;SDS011;35425;51.142;17.178;2023-04-03T07:19:20;1.85;;;1.00;;
39970;SDS011;35425;51.142;17.178;2023-04-03T07:21:47;2.65;;;0.90;;
39970;SDS011;35425;51.142;17.178;2023-04-03T07:24:14;2.03;;;0.93;;
39970;SDS011;35425;51.142;17.178;2023-04-03T07:26:42;1.42;;;0.90;;
39970;SDS011;35425;51.142;17.178;2023-04-03T07:29:09;1.95;;;1.00;;
39970;SDS011;35425;51.142;17.178;2023-04-03T07:31:40;1.00;;;0.70;;
39970;SDS011;35425;51.142;17.178;2023-04-03T07:34:08;0.93;;;0.65;;
39970;SDS011;35425;51.142;17.178;2023-04-03T07:36:35;1.70;;;0.80;;
39970;SDS011;35425;51.142;17.178;2023-04-03T07:39:02;1.30;;;0.80;;
39970;SDS011;35425;51.142;17.178;2023-04-03T07:41:29;1.60;;;0.90;;
39970;SDS011;35425;51.142;17.178;2023-04-03T07:43:56;1.95;;;1.00;;
39970;SDS011;35425;51.142;17.178;2023-04-03T07:46:24;1.58;;;0.82;;
39970;SDS011;35425;51.142;17.178;2023-04-03T07:48:51;1.40;;;0.90;;
39970;SDS011;35425;51.142;17.178;2023-04-03T07:51:18;1.77;;;0.90;;
39970;SDS011;35425;51.142;17.178;2023-04-03T07:53:45;1.85;;;1.00;;
39970;SDS011;35425;51.142;17.178;2023-04-03T07:56:12;1.27;;;0.73;;
39970;SDS011;35425;51.142;17.178;2023-04-03T07:58:39;3.30;;;1.27;;
39970;SDS011;35425;51.142;17.178;2023-04-03T08:01:06;2.42;;;1.05;;
39970;SDS011;35425;51.142;17.178;2023-04-03T08:03:36;1.50;;;0.93;;
39970;SDS011;35425;51.142;17.178;2023-04-03T08:06:04;1.55;;;0.80;;
39970;SDS011;35425;51.142;17.178;2023-04-03T08:08:37;1.73;;;1.02;;
39970;SDS011;35425;51.142;17.178;2023-04-03T08:11:04;1.75;;;0.80;;
39970;SDS011;35425;51.142;17.178;2023-04-03T08:13:32;1.80;;;0.90;;
39970;SDS011;35425;51.142;17.178;2023-04-03T08:16:10;2.58;;;1.13;;
39970;SDS011;35425;51.142;17.178;2023-04-03T08:18:38;2.08;;;1.00;;
39970;SDS011;35425;51.142;17.178;2023-04-03T08:21:06;2.13;;;1.00;;
39970;SDS011;35425;51.142;17.178;2023-04-03T08:23:33;1.90;;;1.00;;
39970;SDS011;35425;51.142;17.178;2023-04-03T08:26:16;1.80;;;0.98;;
39970;SDS011;35425;51.142;17.178;2023-04-03T08:28:44;2.55;;;1.00;;
39970;SDS011;35425;51.142;17.178;2023-04-03T08:31:12;1.70;;;1.00;;
39970;SDS011;35425;51.142;17.178;2023-04-03T08:33:40;1.95;;;0.90;;
39970;SDS011;35425;51.142;17.178;2023-04-03T08:36:08;1.90;;;1.05;;
39970;SDS011;35425;51.142;17.178;2023-04-03T08:38:42;2.63;;;1.05;;
39970;SDS011;35425;51.142;17.178;2023-04-03T08:50:01;2.20;;;1.00;;
39970;SDS011;35425;51.142;17.178;2023-04-03T08:52:23;2.33;;;0.90;;
39970;SDS011;35425;51.142;17.178;2023-04-03T08:54:53;2.13;;;0.82;;
39970;SDS011;35425;51.142;17.178;2023-04-03T08:57:32;1.40;;;0.73;;
39970;SDS011;35425;51.142;17.178;2023-04-03T09:00:03;0.95;;;0.80;;
39970;SDS011;35425;51.142;17.178;2023-04-03T09:02:33;1.73;;;0.70;;
39970;SDS011;35425;51.142;17.178;2023-04-03T09:05:01;2.40;;;0.85;;
39970;SDS011;35425;51.142;17.178;2023-04-03T09:07:31;1.20;;;0.80;;
39970;SDS011;35425;51.142;17.178;2023-04-03T09:09:59;0.98;;;0.60;;
39970;SDS011;35425;51.142;17.178;2023-04-03T09:12:39;1.02;;;0.80;;
39970;SDS011;35425;51.142;17.178;2023-04-03T09:15:20;1.95;;;0.90;;
39970;SDS011;35425;51.142;17.178;2023-04-03T09:20:53;1.13;;;0.68;;
39970;SDS011;35425;51.142;17.178;2023-04-03T09:23:28;1.48;;;0.60;;
39970;SDS011;35425;51.142;17.178;2023-04-03T09:25:58;0.90;;;0.70;;
39970;SDS011;35425;51.142;17.178;2023-04-03T09:28:27;1.65;;;0.55;;
39970;SDS011;35425;51.142;17.178;2023-04-03T09:31:00;1.45;;;0.60;;
39970;SDS011;35425;51.142;17.178;2023-04-03T09:33:28;1.48;;;0.60;;
39970;SDS011;35425;51.142;17.178;2023-04-03T09:35:56;2.45;;;0.80;;
39970;SDS011;35425;51.142;17.178;2023-04-03T09:38:24;1.23;;;0.52;;
39970;SDS011;35425;51.142;17.178;2023-04-03T09:43:54;1.52;;;0.60;;
39970;SDS011;35425;51.142;17.178;2023-04-03T09:46:25;1.10;;;0.55;;
39970;SDS011;35425;51.142;17.178;2023-04-03T09:49:03;1.20;;;0.88;;
39970;SDS011;35425;51.142;17.178;2023-04-03T09:51:35;0.95;;;0.50;;
39970;SDS011;35425;51.142;17.178;2023-04-03T09:54:23;1.05;;;0.50;;
39970;SDS011;35425;51.142;17.178;2023-04-03T09:56:49;1.52;;;0.65;;
39970;SDS011;35425;51.142;17.178;2023-04-03T09:59:17;1.10;;;0.50;;
39970;SDS011;35425;51.142;17.178;2023-04-03T10:01:56;1.60;;;0.57;;
39970;SDS011;35425;51.142;17.178;2023-04-03T10:04:24;1.67;;;0.75;;
39970;SDS011;35425;51.142;17.178;2023-04-03T10:06:52;1.60;;;0.60;;
39970;SDS011;35425;51.142;17.178;2023-04-03T10:09:22;1.08;;;0.70;;
39970;SDS011;35425;51.142;17.178;2023-04-03T10:12:06;1.20;;;0.50;;
39970;SDS011;35425;51.142;17.178;2023-04-03T10:15:10;1.75;;;0.65;;
39970;SDS011;35425;51.142;17.178;2023-04-03T10:20:02;1.23;;;0.63;;
39970;SDS011;35425;51.142;17.178;2023-04-03T10:22:39;1.10;;;0.70;;
39970;SDS011;35425;51.142;17.178;2023-04-03T10:25:26;1.23;;;0.50;;
39970;SDS011;35425;51.142;17.178;2023-04-03T10:27:59;1.40;;;0.77;;
39970;SDS011;35425;51.142;17.178;2023-04-03T10:30:44;1.05;;;0.57;;
39970;SDS011;35425;51.142;17.178;2023-04-03T10:51:14;1.33;;;0.70;;
39970;SDS011;35425;51.142;17.178;2023-04-03T11:01:34;0.90;;;0.50;;
39970;SDS011;35425;51.142;17.178;2023-04-03T11:04:03;1.45;;;0.60;;
39970;SDS011;35425;51.142;17.178;2023-04-03T11:06:36;1.20;;;0.50;;
39970;SDS011;35425;51.142;17.178;2023-04-03T11:09:07;1.00;;;0.60;;
39970;SDS011;35425;51.142;17.178;2023-04-03T11:11:38;1.38;;;0.45;;
39970;SDS011;35425;51.142;17.178;2023-04-03T11:16:38;1.20;;;0.57;;
39970;SDS011;35425;51.142;17.178;2023-04-03T11:19:19;1.92;;;0.65;;
39970;SDS011;35425;51.142;17.178;2023-04-03T11:24:36;1.08;;;0.60;;
39970;SDS011;35425;51.142;17.178;2023-04-03T11:27:04;0.70;;;0.47;;
39970;SDS011;35425;51.142;17.178;2023-04-03T11:29:34;1.50;;;0.50;;
39970;SDS011;35425;51.142;17.178;2023-04-03T11:34:37;1.45;;;0.60;;
39970;SDS011;35425;51.142;17.178;2023-04-03T11:37:15;1.05;;;0.60;;
39970;SDS011;35425;51.142;17.178;2023-04-03T11:39:49;1.80;;;0.73;;
39970;SDS011;35425;51.142;17.178;2023-04-03T11:44:47;1.30;;;0.80;;
39970;SDS011;35425;51.142;17.178;2023-04-03T11:47:43;1.90;;;0.50;;
39970;SDS011;35425;51.142;17.178;2023-04-03T11:50:05;1.48;;;0.55;;
39970;SDS011;35425;51.142;17.178;2023-04-03T12:08:27;0.90;;;0.57;;
39970;SDS011;35425;51.142;17.178;2023-04-03T12:14:21;1.10;;;0.60;;
39970;SDS011;35425;51.142;17.178;2023-04-03T12:19:27;1.48;;;0.50;;
39970;SDS011;35425;51.142;17.178;2023-04-03T12:22:08;0.70;;;0.50;;
39970;SDS011;35425;51.142;17.178;2023-04-03T12:24:36;1.77;;;0.60;;
39970;SDS011;35425;51.142;17.178;2023-04-03T12:29:33;1.75;;;0.52;;
39970;SDS011;35425;51.142;17.178;2023-04-03T12:34:45;1.05;;;0.50;;
39970;SDS011;35425;51.142;17.178;2023-04-03T12:40:31;0.75;;;0.52;;
39970;SDS011;35425;51.142;17.178;2023-04-03T12:42:38;1.10;;;0.60;;
39970;SDS011;35425;51.142;17.178;2023-04-03T12:45:17;0.77;;;0.57;;
39970;SDS011;35425;51.142;17.178;2023-04-03T12:47:49;1.35;;;0.60;;
39970;SDS011;35425;51.142;17.178;2023-04-03T12:50:21;0.80;;;0.50;;
39970;SDS011;35425;51.142;17.178;2023-04-03T12:52:56;1.77;;;0.70;;
39970;SDS011;35425;51.142;17.178;2023-04-03T12:55:24;1.40;;;0.63;;
39970;SDS011;35425;51.142;17.178;2023-04-03T12:57:51;1.77;;;0.85;;
39970;SDS011;35425;51.142;17.178;2023-04-03T13:00:31;1.52;;;0.60;;
39970;SDS011;35425;51.142;17.178;2023-04-03T13:03:01;2.03;;;0.65;;
39970;SDS011;35425;51.142;17.178;2023-04-03T13:05:28;1.95;;;0.70;;
39970;SDS011;35425;51.142;17.178;2023-04-03T13:08:07;0.88;;;0.60;;
39970;SDS011;35425;51.142;17.178;2023-04-03T13:13:22;1.42;;;0.80;;
39970;SDS011;35425;51.142;17.178;2023-04-03T13:15:49;0.95;;;0.70;;
39970;SDS011;35425;51.142;17.178;2023-04-03T13:20:50;1.48;;;0.60;;
39970;SDS011;35425;51.142;17.178;2023-04-03T13:23:19;1.10;;;0.50;;
39970;SDS011;35425;51.142;17.178;2023-04-03T13:25:48;2.08;;;0.82;;
39970;SDS011;35425;51.142;17.178;2023-04-03T13:28:17;1.48;;;0.80;;
39970;SDS011;35425;51.142;17.178;2023-04-03T13:30:55;1.55;;;0.70;;
39970;SDS011;35425;51.142;17.178;2023-04-03T13:33:23;1.45;;;0.70;;
39970;SDS011;35425;51.142;17.178;2023-04-03T13:35:57;1.05;;;0.70;;
39970;SDS011;35425;51.142;17.178;2023-04-03T13:38:26;1.40;;;0.70;;
39970;SDS011;35425;51.142;17.178;2023-04-03T13:40:55;1.17;;;0.57;;
39970;SDS011;35425;51.142;17.178;2023-04-03T13:43:23;1.15;;;0.50;;
39970;SDS011;35425;51.142;17.178;2023-04-03T13:46:33;1.67;;;0.73;;
39970;SDS011;35425;51.142;17.178;2023-04-03T13:48:49;1.15;;;0.77;;
39970;SDS011;35425;51.142;17.178;2023-04-03T13:51:22;1.00;;;0.57;;
39970;SDS011;35425;51.142;17.178;2023-04-03T13:53:51;1.30;;;0.52;;
39970;SDS011;35425;51.142;17.178;2023-04-03T13:56:21;1.00;;;0.60;;
39970;SDS011;35425;51.142;17.178;2023-04-03T13:59:00;1.15;;;0.60;;
39970;SDS011;35425;51.142;17.178;2023-04-03T14:01:46;1.05;;;0.45;;
39970;SDS011;35425;51.142;17.178;2023-04-03T14:04:16;0.82;;;0.63;;
39970;SDS011;35425;51.142;17.178;2023-04-03T14:06:44;1.08;;;0.70;;
39970;SDS011;35425;51.142;17.178;2023-04-03T14:09:14;1.42;;;0.80;;
39970;SDS011;35425;51.142;17.178;2023-04-03T14:11:41;1.27;;;0.68;;
39970;SDS011;35425;51.142;17.178;2023-04-03T14:14:11;1.15;;;0.60;;
39970;SDS011;35425;51.142;17.178;2023-04-03T14:16:40;1.00;;;0.63;;
39970;SDS011;35425;51.142;17.178;2023-04-03T14:19:11;0.80;;;0.60;;
39970;SDS011;35425;51.142;17.178;2023-04-03T14:21:41;0.80;;;0.57;;
39970;SDS011;35425;51.142;17.178;2023-04-03T14:27:12;1.48;;;0.63;;
39970;SDS011;35425;51.142;17.178;2023-04-03T14:29:42;1.25;;;0.63;;
39970;SDS011;35425;51.142;17.178;2023-04-03T14:32:10;1.77;;;0.60;;
39970;SDS011;35425;51.142;17.178;2023-04-03T14:34:40;1.48;;;0.70;;
39970;SDS011;35425;51.142;17.178;2023-04-03T14:37:11;0.73;;;0.70;;
39970;SDS011;35425;51.142;17.178;2023-04-03T14:39:38;0.90;;;0.60;;
39970;SDS011;35425;51.142;17.178;2023-04-03T14:42:05;2.08;;;0.80;;
39970;SDS011;35425;51.142;17.178;2023-04-03T14:44:32;0.85;;;0.57;;
39970;SDS011;35425;51.142;17.178;2023-04-03T14:46:59;0.52;;;0.45;;
39970;SDS011;35425;51.142;17.178;2023-04-03T14:49:26;0.95;;;0.52;;
39970;SDS011;35425;51.142;17.178;2023-04-03T14:51:55;1.10;;;0.70;;
39970;SDS011;35425;51.142;17.178;2023-04-03T14:54:22;1.05;;;0.60;;
39970;SDS011;35425;51.142;17.178;2023-04-03T14:56:54;2.20;;;0.68;;
39970;SDS011;35425;51.142;17.178;2023-04-03T14:59:22;1.38;;;0.80;;
39970;SDS011;35425;51.142;17.178;2023-04-03T15:01:48;1.05;;;0.63;;
39970;SDS011;35425;51.142;17.178;2023-04-03T15:04:19;1.05;;;0.70;;
39970;SDS011;35425;51.142;17.178;2023-04-03T15:06:47;0.90;;;0.70;;
39970;SDS011;35425;51.142;17.178;2023-04-03T15:09:21;1.27;;;0.55;;
39970;SDS011;35425;51.142;17.178;2023-04-03T15:11:49;1.02;;;0.60;;
39970;SDS011;35425;51.142;17.178;2023-04-03T15:14:16;1.17;;;0.70;;
39970;SDS011;35425;51.142;17.178;2023-04-03T15:17:01;1.10;;;0.75;;
39970;SDS011;35425;51.142;17.178;2023-04-03T15:19:30;1.05;;;0.50;;
39970;SDS011;35425;51.142;17.178;2023-04-03T15:21:57;1.23;;;0.70;;
39970;SDS011;35425;51.142;17.178;2023-04-03T15:24:24;1.45;;;0.90;;
39970;SDS011;35425;51.142;17.178;2023-04-03T15:26:51;1.00;;;0.47;;
39970;SDS011;35425;51.142;17.178;2023-04-03T15:29:17;1.15;;;0.70;;
39970;SDS011;35425;51.142;17.178;2023-04-03T15:31:44;1.10;;;0.70;;
39970;SDS011;35425;51.142;17.178;2023-04-03T15:34:11;0.90;;;0.70;;
39970;SDS011;35425;51.142;17.178;2023-04-03T15:36:39;1.33;;;0.70;;
39970;SDS011;35425;51.142;17.178;2023-04-03T15:39:05;1.13;;;0.75;;
39970;SDS011;35425;51.142;17.178;2023-04-03T15:41:32;1.00;;;0.70;;
39970;SDS011;35425;51.142;17.178;2023-04-03T15:43:59;1.35;;;0.68;;
39970;SDS011;35425;51.142;17.178;2023-04-03T15:46:26;1.33;;;0.80;;
39970;SDS011;35425;51.142;17.178;2023-04-03T15:48:56;1.48;;;0.70;;
39970;SDS011;35425;51.142;17.178;2023-04-03T15:51:24;1.23;;;0.80;;
39970;SDS011;35425;51.142;17.178;2023-04-03T15:53:53;1.38;;;0.70;;
39970;SDS011;35425;51.142;17.178;2023-04-03T15:56:20;1.60;;;0.75;;
39970;SDS011;35425;51.142;17.178;2023-04-03T15:58:47;1.00;;;0.60;;
39970;SDS011;35425;51.142;17.178;2023-04-03T16:01:14;1.33;;;0.80;;
39970;SDS011;35425;51.142;17.178;2023-04-03T16:03:41;0.93;;;0.77;;
39970;SDS011;35425;51.142;17.178;2023-04-03T16:06:13;1.63;;;0.70;;
39970;SDS011;35425;51.142;17.178;2023-04-03T16:08:40;1.30;;;0.80;;
39970;SDS011;35425;51.142;17.178;2023-04-03T16:11:07;2.60;;;0.93;;
39970;SDS011;35425;51.142;17.178;2023-04-03T16:13:34;1.27;;;0.98;;
39970;SDS011;35425;51.142;17.178;2023-04-03T16:16:01;1.25;;;0.70;;
39970;SDS011;35425;51.142;17.178;2023-04-03T16:18:28;1.50;;;0.60;;
39970;SDS011;35425;51.142;17.178;2023-04-03T16:20:55;1.55;;;0.90;;
39970;SDS011;35425;51.142;17.178;2023-04-03T16:23:22;1.30;;;0.80;;
39970;SDS011;35425;51.142;17.178;2023-04-03T16:25:49;1.13;;;0.70;;
39970;SDS011;35425;51.142;17.178;2023-04-03T16:28:17;1.50;;;0.88;;
39970;SDS011;35425;51.142;17.178;2023-04-03T16:30:44;2.13;;;1.00;;